Time;durP1;ratioP1;P1;durP2;ratioP2;P2;SDS_P1;SDS_P2;PMS_P1;PMS_P2;Temp;Humidity;BMP_temperature;BMP_pressure;BME280_temperature;BME280_humidity;BME280_pressure;Samples;Min_cycle;Max_cycle;Signal;HPM_P1;HPM_P2
2024/02/21 00:00:38;;;;;;;6.30;4.95;;;;;;;8.50;100.00;101016.34;5093660;28;20044;-44
2024/02/21 00:03:09;;;;;;;6.20;4.60;;;;;;;8.59;100.00;101018.66;5093350;28;20532;-47
2024/02/21 00:05:37;;;;;;;7.57;4.80;;;;;;;8.60;100.00;101014.19;5093308;28;20051;-46
2024/02/21 00:08:10;;;;;;;6.72;4.55;;;;;;;8.67;100.00;101004.16;5093175;28;20052;-46
2024/02/21 00:10:39;;;;;;;6.15;4.57;;;;;;;8.68;100.00;101001.44;5093636;28;20117;-45
2024/02/21 00:13:07;;;;;;;7.18;4.35;;;;;;;8.56;100.00;101010.75;5093582;28;20386;-45
2024/02/21 00:15:35;;;;;;;5.68;3.80;;;;;;;8.54;100.00;101001.13;5093226;28;20055;-45
2024/02/21 00:18:05;;;;;;;5.82;3.60;;;;;;;8.42;100.00;100999.81;5093607;28;20462;-45
2024/02/21 00:20:33;;;;;;;5.18;3.72;;;;;;;8.42;100.00;100999.81;5093160;28;20099;-46
2024/02/21 00:23:01;;;;;;;5.75;3.38;;;;;;;8.45;100.00;101002.34;5093333;28;20093;-45
2024/02/21 00:25:31;;;;;;;4.95;3.35;;;;;;;8.43;100.00;100990.06;5092909;28;20044;-47
2024/02/21 00:28:00;;;;;;;6.45;3.45;;;;;;;8.48;100.00;100994.25;5093011;28;20067;-46
2024/02/21 00:30:28;;;;;;;5.90;3.85;;;;;;;8.50;100.00;100986.25;5093103;28;20512;-45
2024/02/21 00:32:56;;;;;;;6.20;3.30;;;;;;;8.53;100.00;100984.31;5093816;28;20121;-46
2024/02/21 00:35:25;;;;;;;5.30;3.45;;;;;;;8.35;100.00;100987.69;5093016;28;20043;-46
2024/02/21 00:37:53;;;;;;;5.53;3.13;;;;;;;8.33;100.00;100978.88;5092892;28;20070;-44
2024/02/21 00:40:22;;;;;;;7.07;3.35;;;;;;;8.42;100.00;100986.53;5092881;28;20047;-44
2024/02/21 00:42:52;;;;;;;6.85;3.42;;;;;;;8.38;100.00;100982.25;5092979;28;20048;-46
2024/02/21 00:45:21;;;;;;;5.22;2.80;;;;;;;8.36;100.00;100977.94;5092890;28;20084;-45
2024/02/21 00:47:49;;;;;;;5.80;3.40;;;;;;;8.42;100.00;100972.38;5092542;28;20404;-45
2024/02/21 00:50:17;;;;;;;4.93;3.10;;;;;;;8.51;100.00;100972.88;5092844;28;20051;-45
2024/02/21 00:52:46;;;;;;;5.72;2.88;;;;;;;8.14;100.00;100975.22;5092561;28;20040;-44
2024/02/21 00:55:14;;;;;;;5.30;2.97;;;;;;;8.12;100.00;100974.41;5092422;28;20048;-46
2024/02/21 00:57:43;;;;;;;6.38;3.08;;;;;;;8.28;100.00;100979.06;5092481;28;20044;-45
2024/02/21 01:00:14;;;;;;;5.00;2.53;;;;;;;8.25;100.00;100975.66;5092246;28;20048;-45
2024/02/21 01:02:42;;;;;;;4.28;2.17;;;;;;;8.25;100.00;100976.53;5092326;28;20055;-47
2024/02/21 01:05:11;;;;;;;3.63;2.28;;;;;;;8.36;100.00;100978.78;5092272;28;20124;-45
2024/02/21 01:07:39;;;;;;;7.13;2.55;;;;;;;8.43;100.00;100974.09;5092271;28;20049;-45
2024/02/21 01:10:09;;;;;;;4.07;2.15;;;;;;;8.37;100.00;100967.22;5092197;28;20051;-44
2024/02/21 01:12:37;;;;;;;4.57;2.40;;;;;;;8.52;100.00;100968.41;5092061;28;20101;-45
2024/02/21 01:15:06;;;;;;;4.40;2.25;;;;;;;8.47;100.00;100970.38;5092007;28;20630;-46
2024/02/21 01:17:40;;;;;;;5.05;2.17;;;;;;;8.52;100.00;100971.94;5092069;28;20436;-45
2024/02/21 01:20:09;;;;;;;5.35;2.25;;;;;;;8.53;100.00;100972.81;5092008;28;20116;-46
2024/02/21 01:22:38;;;;;;;6.50;2.30;;;;;;;8.52;100.00;100969.28;5091893;28;20177;-46
2024/02/21 01:25:08;;;;;;;4.32;2.08;;;;;;;8.46;100.00;100974.84;5091854;28;20048;-47
2024/02/21 01:27:36;;;;;;;3.78;2.13;;;;;;;8.36;100.00;100978.78;5091706;28;20071;-47
2024/02/21 01:30:05;;;;;;;5.38;2.13;;;;;;;8.13;100.00;100982.31;5091876;28;20052;-45
2024/02/21 01:32:34;;;;;;;5.05;2.40;;;;;;;7.95;100.00;100978.56;5091893;28;20079;-47
2024/02/21 01:35:04;;;;;;;7.88;2.25;;;;;;;7.89;100.00;100973.47;5091710;28;20123;-45
2024/02/21 01:37:33;;;;;;;3.65;2.22;;;;;;;8.03;100.00;100973.84;5091456;28;20044;-45
2024/02/21 01:40:02;;;;;;;6.07;2.13;;;;;;;8.07;100.00;100965.75;5091591;28;20083;-46
2024/02/21 01:42:31;;;;;;;6.63;2.10;;;;;;;8.13;100.00;100977.00;5091436;28;20060;-46
2024/02/21 01:44:59;;;;;;;6.57;2.42;;;;;;;8.16;100.00;100970.69;5091698;28;20044;-45
2024/02/21 01:47:28;;;;;;;6.40;2.42;;;;;;;8.19;100.00;100970.56;5091362;28;20095;-46
2024/02/21 01:49:56;;;;;;;4.60;2.03;;;;;;;8.19;100.00;100960.81;5091805;28;20059;-43
2024/02/21 01:52:26;;;;;;;4.68;2.22;;;;;;;8.05;100.00;100960.50;5091347;28;20052;-46
2024/02/21 01:54:55;;;;;;;4.15;2.22;;;;;;;7.96;100.00;100958.19;5091135;28;20047;-45
2024/02/21 01:57:23;;;;;;;5.82;2.40;;;;;;;8.11;100.00;100967.38;5091520;28;20390;-45
2024/02/21 01:59:53;;;;;;;5.30;2.30;;;;;;;8.00;100.00;100960.66;5091662;28;20421;-45
2024/02/21 02:02:22;;;;;;;5.47;2.75;;;;;;;8.02;100.00;100957.97;5091173;28;20477;-46
2024/02/21 02:04:51;;;;;;;4.25;2.47;;;;;;;7.92;100.00;100952.13;5091204;28;20056;-44
2024/02/21 02:07:19;;;;;;;6.18;2.65;;;;;;;7.87;100.00;100954.09;5090993;28;20097;-45
2024/02/21 02:09:49;;;;;;;4.95;2.20;;;;;;;7.91;100.00;100950.41;5091371;28;20051;-48
2024/02/21 02:12:17;;;;;;;5.00;2.70;;;;;;;7.89;100.00;100952.22;5091342;28;20113;-46
2024/02/21 02:14:46;;;;;;;5.60;2.58;;;;;;;7.79;100.00;100949.97;5091233;28;20145;-46
2024/02/21 02:17:16;;;;;;;5.53;2.67;;;;;;;7.71;100.00;100952.91;5091186;28;20047;-45
2024/02/21 02:19:44;;;;;;;4.00;2.47;;;;;;;7.73;100.00;100956.41;5090546;28;20044;-45
2024/02/21 02:22:21;;;;;;;5.57;2.55;;;;;;;7.74;100.00;100952.81;5091178;28;20433;-45
2024/02/21 02:24:51;;;;;;;6.50;2.53;;;;;;;7.82;100.00;100955.19;5091246;28;20409;-46
2024/02/21 02:27:19;;;;;;;5.43;2.50;;;;;;;7.87;100.00;100956.72;5092273;28;20077;-47
2024/02/21 02:29:48;;;;;;;5.45;3.20;;;;;;;7.87;100.00;100962.06;5090791;28;20044;-44
2024/02/21 02:32:17;;;;;;;5.97;2.65;;;;;;;7.77;100.00;100963.31;5090863;28;20044;-45
2024/02/21 02:34:45;;;;;;;5.90;2.60;;;;;;;7.72;100.00;100946.69;5091210;28;20047;-45
2024/02/21 02:37:16;;;;;;;6.38;2.90;;;;;;;7.78;100.00;100953.56;5090859;28;20044;-45
2024/02/21 02:39:44;;;;;;;7.28;2.60;;;;;;;7.84;100.00;100954.22;5091072;28;20131;-46
2024/02/21 02:42:14;;;;;;;6.85;2.92;;;;;;;7.84;100.00;100945.38;5090925;28;20516;-46
2024/02/21 02:44:42;;;;;;;6.90;2.58;;;;;;;7.72;100.00;100950.22;5090782;28;20044;-46
2024/02/21 02:47:10;;;;;;;5.75;2.60;;;;;;;7.68;100.00;100942.41;5090761;28;20127;-47
2024/02/21 02:49:39;;;;;;;4.43;2.50;;;;;;;7.82;100.00;100942.78;5090806;28;20090;-47
2024/02/21 02:52:08;;;;;;;5.72;3.03;;;;;;;7.66;100.00;100944.28;5090943;28;20052;-45
2024/02/21 02:54:36;;;;;;;5.63;2.78;;;;;;;7.75;100.00;100941.28;5090581;28;20135;-46
2024/02/21 02:57:05;;;;;;;4.43;2.78;;;;;;;7.70;100.00;100940.56;5090689;28;20093;-47
2024/02/21 02:59:35;;;;;;;6.78;2.88;;;;;;;7.74;100.00;100937.75;5090698;28;20043;-46
2024/02/21 03:02:03;;;;;;;5.50;2.90;;;;;;;7.73;100.00;100940.47;5090748;28;20052;-48
2024/02/21 03:04:32;;;;;;;8.18;3.05;;;;;;;7.79;100.00;100934.03;5090662;28;20044;-44
2024/02/21 03:07:01;;;;;;;5.20;2.45;;;;;;;7.58;100.00;100941.03;5090600;28;20438;-46
2024/02/21 03:09:29;;;;;;;5.28;2.80;;;;;;;7.73;100.00;100941.34;5090279;28;20044;-45
2024/02/21 03:12:02;;;;;;;6.78;3.00;;;;;;;7.52;100.00;100944.75;5090504;28;20394;-46
2024/02/21 03:14:31;;;;;;;6.30;3.35;;;;;;;7.63;100.00;100944.41;5090728;28;20066;-45
2024/02/21 03:17:01;;;;;;;5.82;3.60;;;;;;;7.66;100.00;100945.13;5090459;28;20040;-45
2024/02/21 03:19:30;;;;;;;8.02;3.35;;;;;;;7.60;100.00;100939.19;5090677;28;20127;-44
2024/02/21 03:21:58;;;;;;;8.65;3.35;;;;;;;7.61;100.00;100938.25;5090476;28;20133;-45
2024/02/21 03:24:27;;;;;;;7.03;3.22;;;;;;;7.58;100.00;100941.88;5090308;28;20045;-46
2024/02/21 03:26:55;;;;;;;8.43;3.10;;;;;;;7.55;100.00;100943.81;5090408;28;20048;-45
2024/02/21 03:29:23;;;;;;;7.28;3.15;;;;;;;7.57;100.00;100944.59;5090532;28;20145;-46
2024/02/21 03:31:52;;;;;;;6.18;3.28;;;;;;;7.50;100.00;100941.31;5092229;28;20252;-44
2024/02/21 03:34:21;;;;;;;8.48;3.17;;;;;;;7.47;100.00;100944.94;5094324;28;20048;-46
2024/02/21 03:36:50;;;;;;;9.10;3.22;;;;;;;7.49;100.00;100958.16;5093926;28;20052;-45
2024/02/21 03:39:18;;;;;;;6.88;3.38;;;;;;;7.40;100.00;100948.72;5093764;28;20177;-45
2024/02/21 03:41:46;;;;;;;7.07;3.05;;;;;;;7.52;100.00;100952.72;5094073;28;20072;-47
2024/02/21 03:44:17;;;;;;;6.75;3.58;;;;;;;7.40;100.00;100943.41;5093857;28;20131;-45
2024/02/21 03:46:45;;;;;;;9.75;3.15;;;;;;;7.42;100.00;100940.72;5093992;28;20051;-45
2024/02/21 03:49:14;;;;;;;9.80;3.30;;;;;;;7.41;100.00;100952.25;5093506;28;20583;-46
2024/02/21 03:51:44;;;;;;;8.98;3.50;;;;;;;7.47;100.00;100944.94;5093361;28;20055;-45
2024/02/21 03:54:13;;;;;;;5.40;3.03;;;;;;;7.41;100.00;100938.97;5093372;28;20086;-47
2024/02/21 03:56:41;;;;;;;6.82;3.53;;;;;;;7.47;100.00;100939.63;5093551;28;20131;-45
2024/02/21 03:59:09;;;;;;;7.72;3.60;;;;;;;7.52;100.00;100951.84;5093348;28;20465;-45
2024/02/21 04:01:38;;;;;;;6.18;3.25;;;;;;;7.54;100.00;100958.00;5093439;28;20093;-45
2024/02/21 04:04:06;;;;;;;6.95;3.60;;;;;;;7.47;100.00;100950.25;5093292;28;20047;-45
2024/02/21 04:06:35;;;;;;;7.22;3.80;;;;;;;7.41;100.00;100955.78;5093158;28;20048;-45
2024/02/21 04:09:05;;;;;;;8.63;3.67;;;;;;;7.41;100.00;100960.22;5093412;28;20135;-45
2024/02/21 04:11:33;;;;;;;6.43;3.40;;;;;;;7.45;100.00;100956.53;5093242;28;20048;-46
2024/02/21 04:14:01;;;;;;;7.72;3.60;;;;;;;7.49;100.00;100951.97;5093641;28;20127;-45
2024/02/21 04:16:30;;;;;;;7.55;3.75;;;;;;;7.45;100.00;100949.44;5093115;28;20040;-46
2024/02/21 04:18:58;;;;;;;7.95;4.00;;;;;;;7.43;100.00;100951.28;5092921;28;20409;-47
2024/02/21 04:21:27;;;;;;;10.43;3.55;;;;;;;7.44;100.00;100953.03;5093127;28;20185;-47
2024/02/21 04:23:55;;;;;;;8.98;3.65;;;;;;;7.50;100.00;100962.53;5093018;28;20079;-45
2024/02/21 04:26:25;;;;;;;7.65;3.65;;;;;;;7.48;100.00;100956.44;5093145;28;20119;-46
2024/02/21 04:28:53;;;;;;;11.57;4.28;;;;;;;7.42;100.00;100952.19;5092953;28;20056;-47
2024/02/21 04:31:22;;;;;;;8.50;3.92;;;;;;;7.27;100.00;100957.19;5092977;28;20095;-45
2024/02/21 04:33:51;;;;;;;10.30;4.20;;;;;;;7.36;100.00;100955.09;5092909;28;20131;-45
2024/02/21 04:36:19;;;;;;;6.80;3.72;;;;;;;7.37;100.00;100950.63;5092756;28;20055;-46
2024/02/21 04:38:48;;;;;;;7.90;4.13;;;;;;;7.30;100.00;100947.34;5092892;28;20097;-45
2024/02/21 04:41:17;;;;;;;7.97;4.05;;;;;;;7.35;100.00;100944.53;5092641;28;20055;-44
2024/02/21 04:43:48;;;;;;;10.20;4.30;;;;;;;7.36;100.00;100946.25;5092180;28;20040;-46
2024/02/21 04:46:17;;;;;;;6.57;3.75;;;;;;;7.32;100.00;100937.53;5092732;28;20461;-45
2024/02/21 04:48:45;;;;;;;10.20;4.72;;;;;;;7.34;100.00;100948.97;5092754;28;20054;-45
2024/02/21 04:51:14;;;;;;;6.40;3.85;;;;;;;7.41;100.00;100944.28;5092480;28;20116;-47
2024/02/21 04:53:42;;;;;;;8.30;3.88;;;;;;;7.37;100.00;100942.69;5092266;28;20087;-46
2024/02/21 04:56:11;;;;;;;11.43;4.15;;;;;;;7.36;100.00;100954.22;5092460;28;20048;-45
2024/02/21 04:58:40;;;;;;;10.30;4.32;;;;;;;7.28;100.00;100949.19;5092127;28;20052;-47
2024/02/21 05:01:10;;;;;;;9.77;4.60;;;;;;;7.26;100.00;100951.03;5092434;28;20048;-47
2024/02/21 05:03:39;;;;;;;10.52;4.78;;;;;;;7.29;100.00;100950.91;5092306;28;20529;-46
2024/02/21 05:06:08;;;;;;;8.10;4.38;;;;;;;7.33;100.00;100952.53;5092139;28;20406;-46
2024/02/21 05:08:37;;;;;;;8.73;4.95;;;;;;;7.29;100.00;100952.69;5091805;28;20055;-45
2024/02/21 05:11:05;;;;;;;7.47;4.50;;;;;;;7.28;100.00;100946.53;5091771;28;20496;-46
2024/02/21 05:13:34;;;;;;;11.45;4.47;;;;;;;7.31;100.00;100949.06;5092232;28;20040;-45
2024/02/21 05:16:02;;;;;;;9.50;5.07;;;;;;;7.10;100.00;100956.00;5092094;28;20051;-45
2024/02/21 05:18:32;;;;;;;12.45;5.35;;;;;;;7.18;100.00;100958.38;5092161;28;20109;-45
2024/02/21 05:21:02;;;;;;;7.28;4.38;;;;;;;7.23;100.00;100953.75;5091858;28;20173;-48
2024/02/21 05:23:30;;;;;;;8.73;4.68;;;;;;;7.14;100.00;100948.78;5091873;28;20253;-45
2024/02/21 05:25:59;;;;;;;7.05;4.20;;;;;;;7.16;100.00;100944.31;5091334;28;20052;-43
2024/02/21 05:28:27;;;;;;;9.38;5.20;;;;;;;7.16;100.00;100944.31;5091771;28;20043;-45
2024/02/21 05:30:56;;;;;;;8.35;4.93;;;;;;;7.17;100.00;100951.34;5091188;28;20043;-45
2024/02/21 05:33:24;;;;;;;9.38;4.88;;;;;;;7.16;100.00;100944.31;5091666;28;20139;-46
2024/02/21 05:35:54;;;;;;;9.75;4.78;;;;;;;7.11;100.00;100939.16;5091376;28;20044;-46
2024/02/21 05:38:22;;;;;;;7.05;4.82;;;;;;;7.01;100.00;100934.22;5091247;28;20488;-45
2024/02/21 05:40:50;;;;;;;9.45;4.10;;;;;;;7.08;100.00;100935.75;5091230;28;20147;-45
2024/02/21 05:43:19;;;;;;;7.97;4.68;;;;;;;7.00;100.00;100943.09;5091443;28;20055;-46
2024/02/21 05:45:48;;;;;;;9.70;5.28;;;;;;;7.01;100.00;100947.47;5091269;28;20130;-46
2024/02/21 05:48:16;;;;;;;9.70;5.20;;;;;;;6.88;100.00;100947.91;5091266;28;20048;-46
2024/02/21 05:50:45;;;;;;;9.85;4.72;;;;;;;6.83;100.00;100956.94;5091337;28;20128;-47
2024/02/21 05:53:15;;;;;;;12.85;4.68;;;;;;;6.82;100.00;100961.38;5092007;28;20485;-47
2024/02/21 05:55:44;;;;;;;8.98;4.57;;;;;;;6.99;100.00;100955.50;5090776;28;20126;-46
2024/02/21 05:58:13;;;;;;;8.75;4.70;;;;;;;6.80;100.00;100957.91;5090698;28;20402;-45
2024/02/21 06:00:42;;;;;;;8.75;4.25;;;;;;;6.90;100.00;100969.06;5090966;28;20054;-45
2024/02/21 06:03:10;;;;;;;8.15;3.88;;;;;;;6.79;100.00;100966.78;5090998;28;20059;-46
2024/02/21 06:05:39;;;;;;;9.23;4.07;;;;;;;6.80;100.00;100968.50;5090727;28;20048;-46
2024/02/21 06:08:07;;;;;;;8.98;4.18;;;;;;;6.84;100.00;100972.78;5091039;28;20039;-46
2024/02/21 06:10:37;;;;;;;8.55;4.18;;;;;;;7.02;100.00;100966.00;5090688;28;20048;-45
2024/02/21 06:13:06;;;;;;;7.80;4.53;;;;;;;7.02;100.00;100963.34;5090822;28;20043;-45
2024/02/21 06:15:34;;;;;;;8.35;3.90;;;;;;;6.99;100.00;100963.47;5090692;28;20444;-45
2024/02/21 06:18:02;;;;;;;9.15;3.63;;;;;;;7.12;100.00;100969.19;5090569;28;20044;-46
2024/02/21 06:20:31;;;;;;;10.15;4.50;;;;;;;7.15;100.00;100971.78;5091052;28;20410;-43
2024/02/21 06:23:00;;;;;;;8.55;4.40;;;;;;;7.27;100.00;100974.00;5090946;28;20134;-46
2024/02/21 06:25:28;;;;;;;8.55;4.63;;;;;;;7.27;100.00;100979.28;5090872;28;20131;-46
2024/02/21 06:27:58;;;;;;;7.70;4.43;;;;;;;7.26;100.00;100974.91;5090429;28;20056;-46
2024/02/21 06:30:26;;;;;;;10.32;4.22;;;;;;;7.08;100.00;100978.19;5090656;28;20051;-46
2024/02/21 06:32:55;;;;;;;9.15;4.28;;;;;;;7.28;100.00;100978.38;5091041;28;20209;-45
2024/02/21 06:35:25;;;;;;;8.27;4.03;;;;;;;7.52;100.00;100981.06;5090979;28;20055;-44
2024/02/21 06:37:53;;;;;;;8.32;4.30;;;;;;;7.68;100.00;100976.94;5090561;28;20052;-45
2024/02/21 06:40:25;;;;;;;11.20;3.97;;;;;;;7.82;100.00;100977.31;5090229;28;20469;-46
2024/02/21 06:42:54;;;;;;;10.05;4.22;;;;;;;7.89;100.00;100977.94;5090890;28;20048;-45
2024/02/21 06:45:23;;;;;;;13.30;4.57;;;;;;;7.98;100.00;100989.06;5090481;28;20391;-45
2024/02/21 06:47:51;;;;;;;8.07;3.78;;;;;;;8.03;100.00;100976.50;5090343;28;20044;-46
2024/02/21 06:50:23;;;;;;;11.00;5.53;;;;;;;7.88;100.00;100987.69;5090196;28;20420;-45
2024/02/21 06:52:51;;;;;;;9.43;5.63;;;;;;;7.90;100.00;100980.53;5088859;28;20134;-45
2024/02/21 06:55:19;;;;;;;10.00;5.03;;;;;;;8.01;100.00;100993.44;5090167;28;20405;-45
2024/02/21 06:57:48;;;;;;;13.23;4.50;;;;;;;7.94;100.00;100992.78;5089959;28;20458;-45
2024/02/21 07:00:17;;;;;;;11.27;5.30;;;;;;;8.20;100.00;100993.56;5090134;28;20052;-45
2024/02/21 07:02:49;;;;;;;10.65;4.65;;;;;;;8.24;100.00;100995.19;5089776;28;20418;-46
2024/02/21 07:05:17;;;;;;;10.60;4.47;;;;;;;8.24;100.00;100995.19;5090744;28;20131;-46
2024/02/21 07:07:46;;;;;;;8.75;4.20;;;;;;;8.00;100.00;100992.53;5092281;28;20087;-46
2024/02/21 07:10:14;;;;;;;9.88;4.65;;;;;;;8.11;100.00;100993.94;5093779;28;20044;-45
2024/02/21 07:12:43;;;;;;;10.23;4.32;;;;;;;8.00;100.00;100994.31;5093648;28;20105;-45
2024/02/21 07:15:11;;;;;;;8.50;4.15;;;;;;;8.18;100.00;100990.09;5093457;28;20099;-47
2024/02/21 07:17:39;;;;;;;8.52;4.45;;;;;;;8.20;100.00;100999.78;5093192;28;20044;-46
2024/02/21 07:20:10;;;;;;;9.38;4.30;;;;;;;8.18;100.00;101001.59;5093682;28;20066;-43
2024/02/21 07:22:38;;;;;;;9.10;4.35;;;;;;;8.21;100.00;101009.47;5093403;28;20607;-45
2024/02/21 07:25:08;;;;;;;11.05;4.22;;;;;;;8.07;100.00;101010.91;5093290;28;20148;-45
2024/02/21 07:27:37;;;;;;;7.70;4.35;;;;;;;8.04;100.00;101012.75;5093282;28;20430;-44
2024/02/21 07:30:06;;;;;;;8.80;4.13;;;;;;;8.10;100.00;101009.00;5093185;28;20485;-45
2024/02/21 07:32:35;;;;;;;15.13;4.97;;;;;;;8.25;100.00;101012.88;5093539;28;20048;-47
2024/02/21 07:35:05;;;;;;;10.98;4.10;;;;;;;8.44;100.00;101018.38;5093624;28;20572;-45
2024/02/21 07:37:35;;;;;;;10.73;4.35;;;;;;;8.54;100.00;101020.59;5093411;28;20044;-46
2024/02/21 07:40:03;;;;;;;11.43;4.63;;;;;;;8.68;100.00;101016.50;5093651;28;20405;-44
2024/02/21 07:42:32;;;;;;;12.23;4.32;;;;;;;8.77;100.00;101024.13;5093270;28;20120;-45
2024/02/21 07:45:00;;;;;;;8.95;4.15;;;;;;;8.98;100.00;101020.63;5093877;28;20098;-46
2024/02/21 07:47:29;;;;;;;10.48;4.43;;;;;;;9.05;100.00;101022.06;5092928;28;20393;-44
2024/02/21 07:49:57;;;;;;;10.77;4.80;;;;;;;9.13;100.00;101025.28;5092196;28;20125;-45
2024/02/21 07:52:26;;;;;;;8.05;3.95;;;;;;;9.11;100.00;101026.28;5092788;28;20470;-45
2024/02/21 07:54:56;;;;;;;9.25;3.75;;;;;;;9.31;100.00;101033.44;5092654;28;20087;-45
2024/02/21 07:57:24;;;;;;;12.65;4.13;;;;;;;9.24;100.00;101038.13;5092781;28;20055;-45
2024/02/21 07:59:53;;;;;;;7.93;3.83;;;;;;;9.30;100.00;101026.38;5092532;28;20055;-45
2024/02/21 08:02:21;;;;;;;9.20;4.20;;;;;;;9.11;100.00;101028.94;5092372;28;20408;-45
2024/02/21 08:04:49;;;;;;;9.57;4.35;;;;;;;9.09;100.00;101029.00;5092331;28;20078;-44
2024/02/21 08:07:18;;;;;;;11.75;4.25;;;;;;;9.26;100.00;101030.06;5092268;28;20048;-43
2024/02/21 08:09:46;;;;;;;9.15;4.07;;;;;;;9.04;100.00;101027.47;5092573;28;20070;-44
2024/02/21 08:12:15;;;;;;;11.57;4.60;;;;;;;9.28;100.00;101020.25;5092224;28;20458;-45
2024/02/21 08:14:43;;;;;;;9.60;4.15;;;;;;;9.29;100.00;101021.97;5092276;28;20055;-44
2024/02/21 08:17:12;;;;;;;9.43;3.60;;;;;;;9.24;100.00;101026.63;5091757;28;20048;-44
2024/02/21 08:19:40;;;;;;;9.23;4.10;;;;;;;9.07;100.00;101020.22;5092850;28;20493;-44
2024/02/21 08:22:08;;;;;;;11.80;4.60;;;;;;;9.22;100.00;101017.84;5094010;28;20044;-44
2024/02/21 08:24:36;;;;;;;7.30;3.70;;;;;;;9.25;100.00;101013.25;5092974;28;20054;-43
2024/02/21 08:27:05;;;;;;;12.02;3.72;;;;;;;9.27;100.00;101010.53;5092372;28;20044;-43
2024/02/21 08:29:35;;;;;;;9.88;3.70;;;;;;;9.40;100.00;101006.41;5091875;28;20123;-44
2024/02/21 08:32:04;;;;;;;11.05;3.53;;;;;;;9.36;100.00;101016.34;5091701;28;20432;-45
2024/02/21 08:34:34;;;;;;;8.07;3.65;;;;;;;9.49;100.00;101007.81;5091742;28;20202;-45
2024/02/21 08:37:02;;;;;;;8.40;3.10;;;;;;;9.56;100.00;101011.94;5091956;28;20048;-45
2024/02/21 08:39:31;;;;;;;10.43;3.58;;;;;;;9.72;100.00;101011.19;5092221;28;20127;-44
2024/02/21 08:41:59;;;;;;;12.50;3.50;;;;;;;9.61;100.00;101016.13;5092259;28;20427;-44
2024/02/21 08:44:29;;;;;;;8.82;3.55;;;;;;;9.69;100.00;101013.13;5092033;28;20182;-45
2024/02/21 08:46:58;;;;;;;10.32;3.63;;;;;;;9.73;100.00;101010.25;5092064;28;20055;-45
2024/02/21 08:49:28;;;;;;;9.18;3.47;;;;;;;9.92;100.00;101004.09;5091702;28;20075;-44
2024/02/21 08:52:02;;;;;;;11.35;4.07;;;;;;;9.78;100.00;101004.72;5091711;28;20137;-45
2024/02/21 08:54:31;;;;;;;9.80;3.58;;;;;;;9.99;100.00;101010.88;5091679;28;20090;-43
2024/02/21 08:56:59;;;;;;;11.27;3.22;;;;;;;9.99;100.00;101009.06;5092241;28;20048;-49
2024/02/21 08:59:27;;;;;;;10.77;4.40;;;;;;;10.22;100.00;101002.69;5091943;28;20204;-46
2024/02/21 09:01:56;;;;;;;9.10;3.47;;;;;;;10.36;100.00;101010.06;5091835;28;20072;-45
2024/02/21 09:04:25;;;;;;;9.57;3.33;;;;;;;10.33;100.00;101004.88;5091365;28;20173;-44
2024/02/21 09:06:54;;;;;;;9.63;3.42;;;;;;;10.58;100.00;100994.75;5091321;28;20105;-45
2024/02/21 09:09:22;;;;;;;9.13;3.35;;;;;;;10.75;100.00;100999.28;5091350;28;20044;-44
2024/02/21 09:11:54;;;;;;;14.77;4.13;;;;;;;10.99;100.00;100999.00;5091097;28;20044;-45
2024/02/21 09:14:22;;;;;;;8.27;3.95;;;;;;;11.14;100.00;100988.41;5091273;28;20084;-43
2024/02/21 09:16:50;;;;;;;12.45;4.03;;;;;;;11.14;100.00;101004.44;5091145;28;20151;-45
2024/02/21 09:19:19;;;;;;;9.25;3.90;;;;;;;11.09;100.00;100990.44;5091188;28;20508;-45
2024/02/21 09:21:49;;;;;;;11.93;4.05;;;;;;;10.89;100.00;100988.78;5091000;28;20094;-44
2024/02/21 09:24:18;;;;;;;9.60;3.50;;;;;;;10.45;100.00;100995.44;5091031;28;20040;-45
2024/02/21 09:26:46;;;;;;;12.30;3.80;;;;;;;10.53;100.00;100993.28;5091322;28;20044;-44
2024/02/21 09:29:15;;;;;;;11.23;3.72;;;;;;;10.50;100.00;100990.72;5091247;28;20390;-44
2024/02/21 09:31:45;;;;;;;9.50;3.72;;;;;;;10.47;100.00;100993.56;5090903;28;20044;-45
2024/02/21 09:34:13;;;;;;;9.95;3.67;;;;;;;10.21;100.00;100995.59;5090813;28;20463;-45
2024/02/21 09:36:43;;;;;;;10.70;3.17;;;;;;;10.54;100.00;100995.84;5090797;28;20043;-44
2024/02/21 09:39:14;;;;;;;11.40;3.80;;;;;;;10.64;100.00;100992.75;5090742;28;20066;-45
2024/02/21 09:41:47;;;;;;;9.52;3.60;;;;;;;10.71;100.00;100995.03;5090831;28;20538;-44
2024/02/21 09:44:16;;;;;;;6.93;2.80;;;;;;;10.79;100.00;100998.19;5090863;28;20091;-45
2024/02/21 09:46:52;;;;;;;9.77;3.28;;;;;;;10.92;100.00;100995.78;5090643;28;20138;-44
2024/02/21 09:49:31;;;;;;;9.88;3.30;;;;;;;11.17;100.00;100990.06;5090483;28;20048;-44
2024/02/21 09:52:03;;;;;;;10.82;3.35;;;;;;;11.29;100.00;100989.47;5090620;28;20044;-46
2024/02/21 09:54:33;;;;;;;9.55;3.10;;;;;;;11.41;100.00;100996.81;5090368;28;20052;-45
2024/02/21 09:57:02;;;;;;;11.05;3.33;;;;;;;11.29;100.00;100992.13;5090599;28;20181;-43
2024/02/21 09:59:33;;;;;;;8.25;3.10;;;;;;;11.13;100.00;100989.38;5090350;28;20507;-44
2024/02/21 10:02:02;;;;;;;10.93;2.92;;;;;;;11.22;100.00;100995.19;5090188;28;20120;-44
2024/02/21 10:04:31;;;;;;;10.00;3.15;;;;;;;11.35;100.00;100985.59;5090292;28;20101;-44
2024/02/21 10:07:00;;;;;;;10.63;3.55;;;;;;;11.58;100.00;100987.03;5090213;28;20055;-44
2024/02/21 10:09:29;;;;;;;9.98;2.92;;;;;;;11.75;100.00;100979.00;5090220;28;20040;-44
2024/02/21 10:12:10;;;;;;;10.40;3.10;;;;;;;11.51;100.00;100983.00;5090230;28;20040;-45
2024/02/21 10:14:40;;;;;;;11.95;3.10;;;;;;;11.81;100.00;100975.19;5090231;28;20044;-45
2024/02/21 10:17:18;;;;;;;9.18;3.20;;;;;;;11.89;100.00;100971.16;5090232;28;20044;-44
2024/02/21 10:19:47;;;;;;;7.07;2.92;;;;;;;11.62;100.00;100964.59;5089982;28;20449;-45
2024/02/21 10:22:16;;;;;;;11.90;4.18;;;;;;;11.58;100.00;100963.00;5090302;28;20435;-43
2024/02/21 10:24:45;;;;;;;12.50;3.85;;;;;;;11.94;100.00;100958.38;5089984;28;20044;-45
2024/02/21 10:27:14;;;;;;;11.93;3.63;;;;;;;12.20;100.00;100958.78;5090480;28;20389;-45
2024/02/21 10:29:43;;;;;;;9.85;3.25;;;;;;;11.63;100.00;100955.63;5090124;28;20511;-44
2024/02/21 10:32:12;;;;;;;9.45;3.40;;;;;;;11.78;100.00;100941.44;5090280;28;20063;-45
2024/02/21 10:34:43;;;;;;;9.00;3.30;;;;;;;12.18;100.00;100952.66;5090279;28;20044;-45
2024/02/21 10:37:13;;;;;;;8.07;2.97;;;;;;;11.93;100.00;100953.13;5090073;28;20050;-44
2024/02/21 10:39:44;;;;;;;8.65;3.45;;;;;;;12.04;100.00;100948.91;5089896;28;20052;-44
2024/02/21 10:42:16;;;;;;;8.05;2.97;;;;;;;12.07;100.00;100936.34;5094625;28;20112;-45
2024/02/21 10:44:47;;;;;;;9.82;3.15;;;;;;;11.60;100.00;100924.59;5094381;28;20054;-43
2024/02/21 10:47:21;;;;;;;12.90;3.75;;;;;;;11.45;100.00;100930.72;5094038;28;20102;-45
2024/02/21 10:49:58;;;;;;;11.43;3.50;;;;;;;11.22;100.00;100933.75;5093793;28;20536;-45
2024/02/21 10:52:39;;;;;;;9.10;3.60;;;;;;;11.16;100.00;100921.59;5093630;28;20442;-45
2024/02/21 10:55:12;;;;;;;11.70;3.50;;;;;;;11.10;100.00;100921.91;5093962;28;20132;-44
2024/02/21 10:57:42;;;;;;;;;;;;;;;11.06;100.00;100910.50;5094189;28;20056;-45
2024/02/21 11:00:12;;;;;;;8.90;3.55;;;;;;;11.23;100.00;100923.00;5093760;28;19920;-45
2024/02/21 11:02:41;;;;;;;12.82;3.80;;;;;;;11.33;100.00;100913.56;5093877;28;20102;-45
2024/02/21 11:05:10;;;;;;;12.73;4.05;;;;;;;11.52;100.00;100905.44;5093699;28;20043;-48
2024/02/21 11:07:39;;;;;;;12.57;3.50;;;;;;;11.44;100.00;100900.50;5093877;28;20094;-44
2024/02/21 11:10:21;;;;;;;11.63;3.97;;;;;;;11.71;100.00;100902.63;5093999;28;20071;-46
2024/02/21 11:12:53;;;;;;;9.45;3.38;;;;;;;11.99;100.00;100889.50;5093718;28;20481;-44
2024/02/21 11:15:26;;;;;;;13.80;3.47;;;;;;;12.07;100.00;100890.88;5093653;28;20052;-44
2024/02/21 11:17:56;;;;;;;8.13;3.05;;;;;;;12.02;100.00;100881.28;5093208;28;20370;-45
2024/02/21 11:20:36;;;;;;;8.50;3.63;;;;;;;12.07;100.00;100875.69;5093594;28;20044;-44
2024/02/21 11:23:07;;;;;;;11.35;3.42;;;;;;;12.28;100.00;100870.94;5093557;28;20054;-45
2024/02/21 11:25:36;;;;;;;10.55;3.40;;;;;;;12.12;100.00;100870.94;5093585;28;20040;-45
2024/02/21 11:28:06;;;;;;;12.73;3.63;;;;;;;12.07;100.00;100869.50;5095398;28;20052;-46
2024/02/21 11:30:37;;;;;;;8.85;3.00;;;;;;;12.10;100.00;100867.50;5094826;28;20120;-45